sensor_id;sensor_type;location;lat;lon;timestamp;temperature;humidity
16503;DHT22;53067;48.114;11.694;2023-04-15T00:01:15;7.40;88.50
16503;DHT22;53067;48.114;11.694;2023-04-15T00:03:45;7.40;88.50
16503;DHT22;53067;48.114;11.694;2023-04-15T00:06:13;7.40;88.70
16503;DHT22;53067;48.114;11.694;2023-04-15T00:08:41;7.40;88.70
16503;DHT22;53067;48.114;11.694;2023-04-15T00:11:09;7.40;89.00
16503;DHT22;53067;48.114;11.694;2023-04-15T00:13:37;7.30;88.90
16503;DHT22;53067;48.114;11.694;2023-04-15T00:16:05;7.30;88.70
16503;DHT22;53067;48.114;11.694;2023-04-15T00:18:34;7.30;88.50
16503;DHT22;53067;48.114;11.694;2023-04-15T00:21:02;7.30;88.70
16503;DHT22;53067;48.114;11.694;2023-04-15T00:23:30;7.30;88.40
16503;DHT22;53067;48.114;11.694;2023-04-15T00:25:57;7.30;88.60
16503;DHT22;53067;48.114;11.694;2023-04-15T00:28:25;7.30;88.60
16503;DHT22;53067;48.114;11.694;2023-04-15T00:30:53;7.30;88.60
16503;DHT22;53067;48.114;11.694;2023-04-15T00:33:20;7.30;88.60
16503;DHT22;53067;48.114;11.694;2023-04-15T00:35:48;7.30;88.50
16503;DHT22;53067;48.114;11.694;2023-04-15T00:38:16;7.40;88.50
16503;DHT22;53067;48.114;11.694;2023-04-15T00:40:44;7.40;89.20
16503;DHT22;53067;48.114;11.694;2023-04-15T00:43:11;7.30;88.20
16503;DHT22;53067;48.114;11.694;2023-04-15T00:45:39;7.30;89.30
16503;DHT22;53067;48.114;11.694;2023-04-15T00:48:07;7.30;88.70
16503;DHT22;53067;48.114;11.694;2023-04-15T00:50:35;7.40;88.60
16503;DHT22;53067;48.114;11.694;2023-04-15T00:53:02;7.30;88.30
16503;DHT22;53067;48.114;11.694;2023-04-15T00:55:30;7.30;88.50
16503;DHT22;53067;48.114;11.694;2023-04-15T00:57:58;7.40;88.40
16503;DHT22;53067;48.114;11.694;2023-04-15T01:00:26;7.50;88.20
16503;DHT22;53067;48.114;11.694;2023-04-15T01:02:54;7.50;88.10
16503;DHT22;53067;48.114;11.694;2023-04-15T01:05:22;7.50;87.80
16503;DHT22;53067;48.114;11.694;2023-04-15T01:07:50;7.50;87.80
16503;DHT22;53067;48.114;11.694;2023-04-15T01:10:18;7.50;87.90
16503;DHT22;53067;48.114;11.694;2023-04-15T01:12:47;7.50;88.10
16503;DHT22;53067;48.114;11.694;2023-04-15T01:15:15;7.50;87.80
16503;DHT22;53067;48.114;11.694;2023-04-15T01:17:42;7.50;87.80
16503;DHT22;53067;48.114;11.694;2023-04-15T01:20:10;7.50;87.90
16503;DHT22;53067;48.114;11.694;2023-04-15T01:22:38;7.50;87.90
16503;DHT22;53067;48.114;11.694;2023-04-15T01:27:38;7.50;88.80
16503;DHT22;53067;48.114;11.694;2023-04-15T01:30:07;7.40;88.30
16503;DHT22;53067;48.114;11.694;2023-04-15T01:32:36;7.40;88.00
16503;DHT22;53067;48.114;11.694;2023-04-15T01:35:04;7.40;87.90
16503;DHT22;53067;48.114;11.694;2023-04-15T01:37:31;7.50;87.90
16503;DHT22;53067;48.114;11.694;2023-04-15T01:39:59;7.50;88.30
16503;DHT22;53067;48.114;11.694;2023-04-15T01:42:26;7.50;87.70
16503;DHT22;53067;48.114;11.694;2023-04-15T01:44:54;7.50;87.70
16503;DHT22;53067;48.114;11.694;2023-04-15T01:47:21;7.50;87.80
16503;DHT22;53067;48.114;11.694;2023-04-15T01:49:49;7.50;87.90
16503;DHT22;53067;48.114;11.694;2023-04-15T01:52:17;7.50;88.00
16503;DHT22;53067;48.114;11.694;2023-04-15T01:54:44;7.40;87.90
16503;DHT22;53067;48.114;11.694;2023-04-15T01:57:12;7.50;87.80
16503;DHT22;53067;48.114;11.694;2023-04-15T01:59:40;7.50;87.80
16503;DHT22;53067;48.114;11.694;2023-04-15T02:02:08;7.50;87.80
16503;DHT22;53067;48.114;11.694;2023-04-15T02:04:37;7.50;87.90
16503;DHT22;53067;48.114;11.694;2023-04-15T02:07:04;7.50;87.90
16503;DHT22;53067;48.114;11.694;2023-04-15T02:09:32;7.50;88.50
16503;DHT22;53067;48.114;11.694;2023-04-15T02:12:00;7.40;88.00
16503;DHT22;53067;48.114;11.694;2023-04-15T02:14:27;7.40;87.90
16503;DHT22;53067;48.114;11.694;2023-04-15T02:16:55;7.50;87.70
16503;DHT22;53067;48.114;11.694;2023-04-15T02:19:22;7.40;87.60
16503;DHT22;53067;48.114;11.694;2023-04-15T02:21:50;7.50;87.60
16503;DHT22;53067;48.114;11.694;2023-04-15T02:24:18;7.50;87.60
16503;DHT22;53067;48.114;11.694;2023-04-15T02:26:45;7.40;87.60
16503;DHT22;53067;48.114;11.694;2023-04-15T02:29:13;7.40;87.70
16503;DHT22;53067;48.114;11.694;2023-04-15T02:31:40;7.40;87.60
16503;DHT22;53067;48.114;11.694;2023-04-15T02:34:09;7.40;87.60
16503;DHT22;53067;48.114;11.694;2023-04-15T02:36:36;7.30;87.70
16503;DHT22;53067;48.114;11.694;2023-04-15T02:39:06;7.30;87.90
16503;DHT22;53067;48.114;11.694;2023-04-15T02:41:34;7.30;87.80
16503;DHT22;53067;48.114;11.694;2023-04-15T02:44:02;7.30;87.80
16503;DHT22;53067;48.114;11.694;2023-04-15T02:46:29;7.30;87.80
16503;DHT22;53067;48.114;11.694;2023-04-15T02:48:57;7.30;87.80
16503;DHT22;53067;48.114;11.694;2023-04-15T02:51:25;7.30;87.70
16503;DHT22;53067;48.114;11.694;2023-04-15T02:53:54;7.30;87.70
16503;DHT22;53067;48.114;11.694;2023-04-15T02:56:22;7.30;87.60
16503;DHT22;53067;48.114;11.694;2023-04-15T02:58:49;7.20;87.70
16503;DHT22;53067;48.114;11.694;2023-04-15T03:01:17;7.30;87.50
16503;DHT22;53067;48.114;11.694;2023-04-15T03:03:45;7.30;87.60
16503;DHT22;53067;48.114;11.694;2023-04-15T03:06:13;7.30;87.10
16503;DHT22;53067;48.114;11.694;2023-04-15T03:08:41;7.20;87.20
16503;DHT22;53067;48.114;11.694;2023-04-15T03:11:08;7.20;87.20
16503;DHT22;53067;48.114;11.694;2023-04-15T03:13:36;7.20;87.20
16503;DHT22;53067;48.114;11.694;2023-04-15T03:16:05;7.20;87.40
16503;DHT22;53067;48.114;11.694;2023-04-15T03:18:33;7.20;87.20
16503;DHT22;53067;48.114;11.694;2023-04-15T03:21:00;7.30;87.10
16503;DHT22;53067;48.114;11.694;2023-04-15T03:23:29;7.30;86.90
16503;DHT22;53067;48.114;11.694;2023-04-15T03:25:57;7.30;86.90
16503;DHT22;53067;48.114;11.694;2023-04-15T03:28:26;7.40;86.80
16503;DHT22;53067;48.114;11.694;2023-04-15T03:30:55;7.40;86.60
16503;DHT22;53067;48.114;11.694;2023-04-15T03:33:22;7.40;86.30
16503;DHT22;53067;48.114;11.694;2023-04-15T03:35:50;7.50;86.20
16503;DHT22;53067;48.114;11.694;2023-04-15T03:38:18;7.50;86.30
16503;DHT22;53067;48.114;11.694;2023-04-15T03:40:46;7.40;86.10
16503;DHT22;53067;48.114;11.694;2023-04-15T03:43:14;7.50;85.90
16503;DHT22;53067;48.114;11.694;2023-04-15T03:45:42;7.40;86.10
16503;DHT22;53067;48.114;11.694;2023-04-15T03:48:09;7.40;86.20
16503;DHT22;53067;48.114;11.694;2023-04-15T03:50:37;7.40;85.90
16503;DHT22;53067;48.114;11.694;2023-04-15T03:53:04;7.50;85.80
16503;DHT22;53067;48.114;11.694;2023-04-15T03:55:32;7.50;85.90
16503;DHT22;53067;48.114;11.694;2023-04-15T03:57:59;7.50;85.70
16503;DHT22;53067;48.114;11.694;2023-04-15T04:00:27;7.60;85.50
16503;DHT22;53067;48.114;11.694;2023-04-15T04:02:55;7.60;85.30
16503;DHT22;53067;48.114;11.694;2023-04-15T04:05:22;7.60;85.20
16503;DHT22;53067;48.114;11.694;2023-04-15T04:07:50;7.60;85.10
16503;DHT22;53067;48.114;11.694;2023-04-15T04:10:17;7.60;85.10
16503;DHT22;53067;48.114;11.694;2023-04-15T04:12:45;7.60;85.20
16503;DHT22;53067;48.114;11.694;2023-04-15T04:15:12;7.60;85.20
16503;DHT22;53067;48.114;11.694;2023-04-15T04:17:40;7.60;85.30
16503;DHT22;53067;48.114;11.694;2023-04-15T04:20:08;7.60;85.50
16503;DHT22;53067;48.114;11.694;2023-04-15T04:22:39;7.60;85.30
16503;DHT22;53067;48.114;11.694;2023-04-15T04:25:07;7.60;85.20
16503;DHT22;53067;48.114;11.694;2023-04-15T04:27:35;7.60;85.20
16503;DHT22;53067;48.114;11.694;2023-04-15T04:30:04;7.50;85.50
16503;DHT22;53067;48.114;11.694;2023-04-15T04:32:32;7.50;85.30
16503;DHT22;53067;48.114;11.694;2023-04-15T04:34:59;7.50;84.90
16503;DHT22;53067;48.114;11.694;2023-04-15T04:37:27;7.50;84.90
16503;DHT22;53067;48.114;11.694;2023-04-15T04:39:54;7.50;84.80
16503;DHT22;53067;48.114;11.694;2023-04-15T04:42:22;7.50;84.60
16503;DHT22;53067;48.114;11.694;2023-04-15T04:44:50;7.50;84.30
16503;DHT22;53067;48.114;11.694;2023-04-15T04:47:18;7.50;84.00
16503;DHT22;53067;48.114;11.694;2023-04-15T04:49:46;7.50;84.00
16503;DHT22;53067;48.114;11.694;2023-04-15T04:52:13;7.50;83.40
16503;DHT22;53067;48.114;11.694;2023-04-15T04:54:41;7.50;83.30
16503;DHT22;53067;48.114;11.694;2023-04-15T04:57:08;7.50;83.30
16503;DHT22;53067;48.114;11.694;2023-04-15T04:59:38;7.50;83.60
16503;DHT22;53067;48.114;11.694;2023-04-15T05:02:06;7.40;83.00
16503;DHT22;53067;48.114;11.694;2023-04-15T05:04:34;7.40;83.10
16503;DHT22;53067;48.114;11.694;2023-04-15T05:07:02;7.40;83.30
16503;DHT22;53067;48.114;11.694;2023-04-15T05:09:30;7.40;82.90
16503;DHT22;53067;48.114;11.694;2023-04-15T05:11:58;7.30;83.70
16503;DHT22;53067;48.114;11.694;2023-04-15T05:14:26;7.30;83.80
16503;DHT22;53067;48.114;11.694;2023-04-15T05:16:54;7.40;84.00
16503;DHT22;53067;48.114;11.694;2023-04-15T05:19:22;7.40;83.90
16503;DHT22;53067;48.114;11.694;2023-04-15T05:21:49;7.50;83.90
16503;DHT22;53067;48.114;11.694;2023-04-15T05:24:17;7.40;83.90
16503;DHT22;53067;48.114;11.694;2023-04-15T05:26:44;7.50;83.60
16503;DHT22;53067;48.114;11.694;2023-04-15T05:29:12;7.40;83.20
16503;DHT22;53067;48.114;11.694;2023-04-15T05:31:40;7.40;83.80
16503;DHT22;53067;48.114;11.694;2023-04-15T05:34:07;7.40;83.50
16503;DHT22;53067;48.114;11.694;2023-04-15T05:36:35;7.40;83.60
16503;DHT22;53067;48.114;11.694;2023-04-15T05:39:03;7.50;83.10
16503;DHT22;53067;48.114;11.694;2023-04-15T05:41:30;7.40;82.90
16503;DHT22;53067;48.114;11.694;2023-04-15T05:43:58;7.40;82.80
16503;DHT22;53067;48.114;11.694;2023-04-15T05:46:26;7.40;82.90
16503;DHT22;53067;48.114;11.694;2023-04-15T05:48:53;7.40;82.80
16503;DHT22;53067;48.114;11.694;2023-04-15T05:51:21;7.40;82.20
16503;DHT22;53067;48.114;11.694;2023-04-15T05:53:48;7.40;82.30
16503;DHT22;53067;48.114;11.694;2023-04-15T05:56:16;7.40;81.50
16503;DHT22;53067;48.114;11.694;2023-04-15T05:58:44;7.40;80.80
16503;DHT22;53067;48.114;11.694;2023-04-15T06:01:11;7.40;80.80
16503;DHT22;53067;48.114;11.694;2023-04-15T06:03:39;7.40;80.40
16503;DHT22;53067;48.114;11.694;2023-04-15T06:06:06;7.40;80.20
16503;DHT22;53067;48.114;11.694;2023-04-15T06:08:34;7.40;79.90
16503;DHT22;53067;48.114;11.694;2023-04-15T06:11:02;7.50;79.60
16503;DHT22;53067;48.114;11.694;2023-04-15T06:13:29;7.50;79.60
16503;DHT22;53067;48.114;11.694;2023-04-15T06:15:57;7.50;79.80
16503;DHT22;53067;48.114;11.694;2023-04-15T06:18:25;7.60;79.00
16503;DHT22;53067;48.114;11.694;2023-04-15T06:20:52;7.70;78.80
16503;DHT22;53067;48.114;11.694;2023-04-15T06:23:20;7.70;78.70
16503;DHT22;53067;48.114;11.694;2023-04-15T06:25:47;7.80;78.40
16503;DHT22;53067;48.114;11.694;2023-04-15T06:28:15;7.80;78.40
16503;DHT22;53067;48.114;11.694;2023-04-15T06:30:42;7.80;78.20
16503;DHT22;53067;48.114;11.694;2023-04-15T06:33:10;7.90;78.20
16503;DHT22;53067;48.114;11.694;2023-04-15T06:35:38;7.90;78.00
16503;DHT22;53067;48.114;11.694;2023-04-15T06:38:05;7.90;76.80
16503;DHT22;53067;48.114;11.694;2023-04-15T06:40:33;7.90;77.60
16503;DHT22;53067;48.114;11.694;2023-04-15T06:43:01;8.00;77.40
16503;DHT22;53067;48.114;11.694;2023-04-15T06:45:30;7.90;76.70
16503;DHT22;53067;48.114;11.694;2023-04-15T06:47:57;8.00;77.40
16503;DHT22;53067;48.114;11.694;2023-04-15T06:50:25;8.00;76.60
16503;DHT22;53067;48.114;11.694;2023-04-15T06:52:54;8.00;76.10
16503;DHT22;53067;48.114;11.694;2023-04-15T06:55:22;8.00;76.80
16503;DHT22;53067;48.114;11.694;2023-04-15T06:57:50;8.10;75.70
16503;DHT22;53067;48.114;11.694;2023-04-15T07:00:17;8.10;75.60
16503;DHT22;53067;48.114;11.694;2023-04-15T07:02:45;8.10;74.80
16503;DHT22;53067;48.114;11.694;2023-04-15T07:05:13;8.20;74.70
16503;DHT22;53067;48.114;11.694;2023-04-15T07:07:41;8.20;74.00
16503;DHT22;53067;48.114;11.694;2023-04-15T07:10:09;8.30;74.60
16503;DHT22;53067;48.114;11.694;2023-04-15T07:12:57;8.30;74.60
16503;DHT22;53067;48.114;11.694;2023-04-15T07:15:24;8.40;74.90
16503;DHT22;53067;48.114;11.694;2023-04-15T07:17:52;8.50;74.30
16503;DHT22;53067;48.114;11.694;2023-04-15T07:20:19;8.50;73.00
16503;DHT22;53067;48.114;11.694;2023-04-15T07:22:47;8.60;72.80
16503;DHT22;53067;48.114;11.694;2023-04-15T07:25:15;8.60;72.90
16503;DHT22;53067;48.114;11.694;2023-04-15T07:27:43;8.70;72.70
16503;DHT22;53067;48.114;11.694;2023-04-15T07:30:12;8.70;72.40
16503;DHT22;53067;48.114;11.694;2023-04-15T07:32:41;8.80;71.50
16503;DHT22;53067;48.114;11.694;2023-04-15T07:35:09;8.90;71.60
16503;DHT22;53067;48.114;11.694;2023-04-15T07:37:37;8.90;70.90
16503;DHT22;53067;48.114;11.694;2023-04-15T07:40:05;8.90;71.00
16503;DHT22;53067;48.114;11.694;2023-04-15T07:42:34;9.00;70.20
16503;DHT22;53067;48.114;11.694;2023-04-15T07:45:03;9.00;69.50
16503;DHT22;53067;48.114;11.694;2023-04-15T07:47:30;9.10;69.30
16503;DHT22;53067;48.114;11.694;2023-04-15T07:49:58;9.10;69.70
16503;DHT22;53067;48.114;11.694;2023-04-15T07:52:26;9.20;69.40
16503;DHT22;53067;48.114;11.694;2023-04-15T07:54:53;9.20;68.60
16503;DHT22;53067;48.114;11.694;2023-04-15T07:57:21;9.20;69.90
16503;DHT22;53067;48.114;11.694;2023-04-15T07:59:48;9.30;70.60
16503;DHT22;53067;48.114;11.694;2023-04-15T08:02:16;9.30;69.20
16503;DHT22;53067;48.114;11.694;2023-04-15T08:04:43;9.40;68.70
16503;DHT22;53067;48.114;11.694;2023-04-15T08:07:11;9.50;67.50
16503;DHT22;53067;48.114;11.694;2023-04-15T08:09:38;9.50;67.30
16503;DHT22;53067;48.114;11.694;2023-04-15T08:12:06;9.50;67.10
16503;DHT22;53067;48.114;11.694;2023-04-15T08:14:35;9.50;67.40
16503;DHT22;53067;48.114;11.694;2023-04-15T08:17:03;9.60;67.30
16503;DHT22;53067;48.114;11.694;2023-04-15T08:19:31;9.70;67.60
16503;DHT22;53067;48.114;11.694;2023-04-15T08:21:58;9.90;66.40
16503;DHT22;53067;48.114;11.694;2023-04-15T08:24:26;9.90;67.10
16503;DHT22;53067;48.114;11.694;2023-04-15T08:26:53;9.90;66.80
16503;DHT22;53067;48.114;11.694;2023-04-15T08:29:22;10.00;66.20
16503;DHT22;53067;48.114;11.694;2023-04-15T08:31:49;10.10;66.80
16503;DHT22;53067;48.114;11.694;2023-04-15T08:34:17;10.10;65.40
16503;DHT22;53067;48.114;11.694;2023-04-15T08:36:44;10.20;65.60
16503;DHT22;53067;48.114;11.694;2023-04-15T08:39:12;10.20;65.50
16503;DHT22;53067;48.114;11.694;2023-04-15T08:41:50;10.30;65.20
16503;DHT22;53067;48.114;11.694;2023-04-15T08:44:17;10.40;64.80
16503;DHT22;53067;48.114;11.694;2023-04-15T08:46:46;10.50;65.60
16503;DHT22;53067;48.114;11.694;2023-04-15T08:49:14;10.50;64.60
16503;DHT22;53067;48.114;11.694;2023-04-15T08:51:44;10.50;64.00
16503;DHT22;53067;48.114;11.694;2023-04-15T08:54:12;10.50;64.30
16503;DHT22;53067;48.114;11.694;2023-04-15T08:56:40;10.50;63.80
16503;DHT22;53067;48.114;11.694;2023-04-15T08:59:08;10.50;64.40
16503;DHT22;53067;48.114;11.694;2023-04-15T09:01:37;10.60;63.90
16503;DHT22;53067;48.114;11.694;2023-04-15T09:04:05;10.60;63.90
16503;DHT22;53067;48.114;11.694;2023-04-15T09:06:33;10.60;64.00
16503;DHT22;53067;48.114;11.694;2023-04-15T09:09:01;10.70;63.10
16503;DHT22;53067;48.114;11.694;2023-04-15T09:11:29;10.70;63.40
16503;DHT22;53067;48.114;11.694;2023-04-15T09:13:57;10.60;63.20
16503;DHT22;53067;48.114;11.694;2023-04-15T09:16:24;10.60;64.10
16503;DHT22;53067;48.114;11.694;2023-04-15T09:18:53;10.70;64.90
16503;DHT22;53067;48.114;11.694;2023-04-15T09:21:20;10.80;63.60
16503;DHT22;53067;48.114;11.694;2023-04-15T09:23:57;10.80;63.90
16503;DHT22;53067;48.114;11.694;2023-04-15T09:26:32;10.90;62.90
16503;DHT22;53067;48.114;11.694;2023-04-15T09:29:07;11.00;62.20
16503;DHT22;53067;48.114;11.694;2023-04-15T09:31:36;11.00;62.80
16503;DHT22;53067;48.114;11.694;2023-04-15T09:34:04;11.00;63.10
16503;DHT22;53067;48.114;11.694;2023-04-15T09:36:56;11.00;63.10
16503;DHT22;53067;48.114;11.694;2023-04-15T09:39:20;11.10;64.30
16503;DHT22;53067;48.114;11.694;2023-04-15T09:42:05;11.20;64.80
16503;DHT22;53067;48.114;11.694;2023-04-15T09:44:33;11.20;64.20
16503;DHT22;53067;48.114;11.694;2023-04-15T09:47:00;11.20;65.80
16503;DHT22;53067;48.114;11.694;2023-04-15T09:49:28;11.10;66.20
16503;DHT22;53067;48.114;11.694;2023-04-15T09:52:02;11.20;66.30
16503;DHT22;53067;48.114;11.694;2023-04-15T09:54:35;11.10;64.00
16503;DHT22;53067;48.114;11.694;2023-04-15T09:57:07;11.10;64.00
16503;DHT22;53067;48.114;11.694;2023-04-15T09:59:36;11.00;64.00
16503;DHT22;53067;48.114;11.694;2023-04-15T10:02:04;11.00;64.70
16503;DHT22;53067;48.114;11.694;2023-04-15T10:04:35;11.00;64.90
16503;DHT22;53067;48.114;11.694;2023-04-15T10:07:04;10.90;65.80
16503;DHT22;53067;48.114;11.694;2023-04-15T10:09:32;11.00;65.30
16503;DHT22;53067;48.114;11.694;2023-04-15T10:12:00;11.00;66.10
16503;DHT22;53067;48.114;11.694;2023-04-15T10:14:31;11.00;64.20
16503;DHT22;53067;48.114;11.694;2023-04-15T10:17:01;11.00;64.20
16503;DHT22;53067;48.114;11.694;2023-04-15T10:19:30;10.90;65.30
16503;DHT22;53067;48.114;11.694;2023-04-15T10:21:58;11.00;66.40
16503;DHT22;53067;48.114;11.694;2023-04-15T10:24:26;11.00;64.40
16503;DHT22;53067;48.114;11.694;2023-04-15T10:26:54;11.00;64.80
16503;DHT22;53067;48.114;11.694;2023-04-15T10:29:24;11.10;64.90
16503;DHT22;53067;48.114;11.694;2023-04-15T10:31:57;11.20;64.90
16503;DHT22;53067;48.114;11.694;2023-04-15T10:34:25;11.30;64.00
16503;DHT22;53067;48.114;11.694;2023-04-15T10:37:00;11.20;62.50
16503;DHT22;53067;48.114;11.694;2023-04-15T10:39:40;11.10;62.90
16503;DHT22;53067;48.114;11.694;2023-04-15T10:42:13;11.00;63.40
16503;DHT22;53067;48.114;11.694;2023-04-15T10:44:42;11.10;63.00
16503;DHT22;53067;48.114;11.694;2023-04-15T10:47:19;11.10;62.80
16503;DHT22;53067;48.114;11.694;2023-04-15T10:49:54;11.00;63.40
16503;DHT22;53067;48.114;11.694;2023-04-15T10:52:28;11.00;64.00
16503;DHT22;53067;48.114;11.694;2023-04-15T10:55:11;11.10;64.10
16503;DHT22;53067;48.114;11.694;2023-04-15T10:57:37;11.20;63.50
16503;DHT22;53067;48.114;11.694;2023-04-15T11:00:17;11.30;63.30
16503;DHT22;53067;48.114;11.694;2023-04-15T11:02:58;11.40;63.60
16503;DHT22;53067;48.114;11.694;2023-04-15T11:08:12;11.50;62.10
16503;DHT22;53067;48.114;11.694;2023-04-15T11:13:17;11.30;61.30
16503;DHT22;53067;48.114;11.694;2023-04-15T11:15:47;11.30;60.60
16503;DHT22;53067;48.114;11.694;2023-04-15T11:18:23;11.30;61.00
16503;DHT22;53067;48.114;11.694;2023-04-15T11:20:55;11.40;62.00
16503;DHT22;53067;48.114;11.694;2023-04-15T11:23:34;11.40;61.40
16503;DHT22;53067;48.114;11.694;2023-04-15T11:26:04;11.40;61.70
16503;DHT22;53067;48.114;11.694;2023-04-15T11:28:33;11.50;60.80
16503;DHT22;53067;48.114;11.694;2023-04-15T11:31:13;11.50;61.50
16503;DHT22;53067;48.114;11.694;2023-04-15T11:33:46;11.50;61.30
16503;DHT22;53067;48.114;11.694;2023-04-15T11:36:14;11.50;60.40
16503;DHT22;53067;48.114;11.694;2023-04-15T11:38:42;11.50;60.70
16503;DHT22;53067;48.114;11.694;2023-04-15T11:41:10;11.60;61.70
16503;DHT22;53067;48.114;11.694;2023-04-15T11:43:38;11.60;61.60
16503;DHT22;53067;48.114;11.694;2023-04-15T11:46:06;11.60;62.00
16503;DHT22;53067;48.114;11.694;2023-04-15T11:48:35;11.60;59.30
16503;DHT22;53067;48.114;11.694;2023-04-15T11:51:05;11.50;60.50
16503;DHT22;53067;48.114;11.694;2023-04-15T11:53:44;11.60;61.20
16503;DHT22;53067;48.114;11.694;2023-04-15T11:56:19;11.50;61.00
16503;DHT22;53067;48.114;11.694;2023-04-15T11:59:06;11.40;60.70
16503;DHT22;53067;48.114;11.694;2023-04-15T12:01:35;11.30;60.60
16503;DHT22;53067;48.114;11.694;2023-04-15T12:04:13;11.10;61.20
16503;DHT22;53067;48.114;11.694;2023-04-15T12:06:43;11.10;61.70
16503;DHT22;53067;48.114;11.694;2023-04-15T12:09:14;11.00;62.40
16503;DHT22;53067;48.114;11.694;2023-04-15T12:11:48;11.00;63.60
16503;DHT22;53067;48.114;11.694;2023-04-15T12:14:30;11.00;62.00
16503;DHT22;53067;48.114;11.694;2023-04-15T12:17:03;11.00;63.10
16503;DHT22;53067;48.114;11.694;2023-04-15T12:22:07;10.90;63.10
16503;DHT22;53067;48.114;11.694;2023-04-15T12:24:35;10.90;62.90
16503;DHT22;53067;48.114;11.694;2023-04-15T12:27:04;10.90;62.30
16503;DHT22;53067;48.114;11.694;2023-04-15T12:29:34;11.00;62.60
16503;DHT22;53067;48.114;11.694;2023-04-15T12:32:09;11.00;62.90
16503;DHT22;53067;48.114;11.694;2023-04-15T12:37:09;11.00;62.50
16503;DHT22;53067;48.114;11.694;2023-04-15T12:39:39;11.00;61.90
16503;DHT22;53067;48.114;11.694;2023-04-15T12:42:07;11.10;61.30
16503;DHT22;53067;48.114;11.694;2023-04-15T12:44:54;11.10;60.00
16503;DHT22;53067;48.114;11.694;2023-04-15T12:47:22;11.20;60.60
16503;DHT22;53067;48.114;11.694;2023-04-15T12:49:49;11.20;59.50
16503;DHT22;53067;48.114;11.694;2023-04-15T12:52:17;11.20;59.60
16503;DHT22;53067;48.114;11.694;2023-04-15T12:54:45;11.20;58.70
16503;DHT22;53067;48.114;11.694;2023-04-15T12:57:13;11.30;58.20
16503;DHT22;53067;48.114;11.694;2023-04-15T12:59:40;11.30;58.30
16503;DHT22;53067;48.114;11.694;2023-04-15T13:02:08;11.30;57.00
16503;DHT22;53067;48.114;11.694;2023-04-15T13:04:35;11.30;57.80
16503;DHT22;53067;48.114;11.694;2023-04-15T13:07:03;11.20;58.40
16503;DHT22;53067;48.114;11.694;2023-04-15T13:09:30;11.30;58.00
16503;DHT22;53067;48.114;11.694;2023-04-15T13:11:58;11.20;57.40
16503;DHT22;53067;48.114;11.694;2023-04-15T13:14:25;11.20;56.80
16503;DHT22;53067;48.114;11.694;2023-04-15T13:16:53;11.20;57.40
16503;DHT22;53067;48.114;11.694;2023-04-15T13:19:20;11.20;57.40
16503;DHT22;53067;48.114;11.694;2023-04-15T13:21:48;11.20;58.00
16503;DHT22;53067;48.114;11.694;2023-04-15T13:24:15;11.20;57.00
16503;DHT22;53067;48.114;11.694;2023-04-15T13:26:43;11.10;56.80
16503;DHT22;53067;48.114;11.694;2023-04-15T13:29:11;11.10;56.90
16503;DHT22;53067;48.114;11.694;2023-04-15T13:31:39;11.10;57.90
16503;DHT22;53067;48.114;11.694;2023-04-15T13:34:07;11.00;58.80
16503;DHT22;53067;48.114;11.694;2023-04-15T13:36:34;10.90;59.70
16503;DHT22;53067;48.114;11.694;2023-04-15T13:39:02;10.90;59.60
16503;DHT22;53067;48.114;11.694;2023-04-15T13:41:30;10.80;60.70
16503;DHT22;53067;48.114;11.694;2023-04-15T13:43:58;10.90;61.10
16503;DHT22;53067;48.114;11.694;2023-04-15T13:46:26;10.90;60.20
16503;DHT22;53067;48.114;11.694;2023-04-15T13:48:53;11.00;60.30
16503;DHT22;53067;48.114;11.694;2023-04-15T13:51:21;10.90;59.50
16503;DHT22;53067;48.114;11.694;2023-04-15T13:53:48;10.90;59.50
16503;DHT22;53067;48.114;11.694;2023-04-15T13:56:16;10.90;60.60
16503;DHT22;53067;48.114;11.694;2023-04-15T13:58:43;10.80;59.90
16503;DHT22;53067;48.114;11.694;2023-04-15T14:01:11;10.80;60.80
16503;DHT22;53067;48.114;11.694;2023-04-15T14:03:39;10.80;61.70
16503;DHT22;53067;48.114;11.694;2023-04-15T14:06:06;10.80;61.20
16503;DHT22;53067;48.114;11.694;2023-04-15T14:08:34;10.60;63.10
16503;DHT22;53067;48.114;11.694;2023-04-15T14:11:01;10.60;63.40
16503;DHT22;53067;48.114;11.694;2023-04-15T14:13:29;10.50;63.00
16503;DHT22;53067;48.114;11.694;2023-04-15T14:15:56;10.40;64.00
16503;DHT22;53067;48.114;11.694;2023-04-15T14:18:24;10.40;63.70
16503;DHT22;53067;48.114;11.694;2023-04-15T14:20:52;10.40;64.20
16503;DHT22;53067;48.114;11.694;2023-04-15T14:23:20;10.50;63.20
16503;DHT22;53067;48.114;11.694;2023-04-15T14:25:47;10.40;61.50
16503;DHT22;53067;48.114;11.694;2023-04-15T14:28:15;10.40;63.20
16503;DHT22;53067;48.114;11.694;2023-04-15T14:30:43;10.40;61.40
16503;DHT22;53067;48.114;11.694;2023-04-15T14:33:10;10.40;60.90
16503;DHT22;53067;48.114;11.694;2023-04-15T14:35:38;10.30;60.50
16503;DHT22;53067;48.114;11.694;2023-04-15T14:38:05;10.30;61.10
16503;DHT22;53067;48.114;11.694;2023-04-15T14:40:35;10.30;61.50
16503;DHT22;53067;48.114;11.694;2023-04-15T14:43:04;10.40;60.90
16503;DHT22;53067;48.114;11.694;2023-04-15T14:45:31;10.40;61.30
16503;DHT22;53067;48.114;11.694;2023-04-15T14:47:59;10.40;60.80
16503;DHT22;53067;48.114;11.694;2023-04-15T14:50:26;10.30;60.80
16503;DHT22;53067;48.114;11.694;2023-04-15T14:52:54;10.30;60.50
16503;DHT22;53067;48.114;11.694;2023-04-15T14:55:22;10.40;61.20
16503;DHT22;53067;48.114;11.694;2023-04-15T14:57:49;10.40;61.70
16503;DHT22;53067;48.114;11.694;2023-04-15T15:00:17;10.50;62.10
16503;DHT22;53067;48.114;11.694;2023-04-15T15:02:44;10.50;61.80
16503;DHT22;53067;48.114;11.694;2023-04-15T15:05:14;10.60;61.70
16503;DHT22;53067;48.114;11.694;2023-04-15T15:07:41;10.60;63.00
16503;DHT22;53067;48.114;11.694;2023-04-15T15:10:09;10.60;63.40
16503;DHT22;53067;48.114;11.694;2023-04-15T15:12:36;10.60;63.60
16503;DHT22;53067;48.114;11.694;2023-04-15T15:15:04;10.60;64.00
16503;DHT22;53067;48.114;11.694;2023-04-15T15:17:33;10.70;65.20
16503;DHT22;53067;48.114;11.694;2023-04-15T15:22:48;10.70;65.80
16503;DHT22;53067;48.114;11.694;2023-04-15T15:25:16;10.70;66.50
16503;DHT22;53067;48.114;11.694;2023-04-15T15:27:43;10.60;66.70
16503;DHT22;53067;48.114;11.694;2023-04-15T15:30:11;10.60;67.80
16503;DHT22;53067;48.114;11.694;2023-04-15T15:32:40;10.60;67.90
16503;DHT22;53067;48.114;11.694;2023-04-15T15:35:09;10.50;67.70
16503;DHT22;53067;48.114;11.694;2023-04-15T15:37:36;10.40;67.80
16503;DHT22;53067;48.114;11.694;2023-04-15T15:40:05;10.40;67.90
16503;DHT22;53067;48.114;11.694;2023-04-15T15:42:37;10.40;69.10
16503;DHT22;53067;48.114;11.694;2023-04-15T15:45:05;10.30;69.30
16503;DHT22;53067;48.114;11.694;2023-04-15T15:47:33;10.20;68.20
16503;DHT22;53067;48.114;11.694;2023-04-15T15:50:00;10.10;69.30